Time;durP1;ratioP1;P1;durP2;ratioP2;P2;SDS_P1;SDS_P2;PMS_P1;PMS_P2;Temp;Humidity;BMP_temperature;BMP_pressure;BME280_temperature;BME280_humidity;BME280_pressure;Samples;Min_cycle;Max_cycle;Signal;HPM_P1;HPM_P2
2022/12/11 00:01:45;;;;;;;34.00;18.63;;;1.60;83.70;;;;;;5006574;28;20521;-60
2022/12/11 00:04:11;;;;;;;33.50;18.20;;;1.60;83.50;;;;;;5007335;28;20041;-59
2022/12/11 00:06:37;;;;;;;30.73;17.77;;;1.60;83.60;;;;;;5007814;28;20033;-60
2022/12/11 00:09:02;;;;;;;28.52;16.67;;;1.60;83.50;;;;;;5008390;28;20136;-59
2022/12/11 00:11:28;;;;;;;29.70;16.67;;;1.60;83.50;;;;;;5007950;28;20040;-61
2022/12/11 00:13:54;;;;;;;28.38;15.85;;;1.70;83.50;;;;;;5007411;28;20505;-61
2022/12/11 00:16:19;;;;;;;30.08;16.45;;;1.70;83.60;;;;;;5008559;28;20033;-60
2022/12/11 00:18:45;;;;;;;28.30;16.00;;;1.70;83.30;;;;;;5008103;28;20471;-60
2022/12/11 00:21:13;;;;;;;27.73;15.82;;;1.70;83.30;;;;;;5009375;28;20052;-60
2022/12/11 00:23:39;;;;;;;29.05;16.90;;;1.70;83.20;;;;;;5006372;28;20037;-60
2022/12/11 00:26:08;;;;;;;26.88;15.95;;;1.70;83.30;;;;;;5004230;28;20040;-60
2022/12/11 00:28:33;;;;;;;28.77;16.50;;;1.70;83.20;;;;;;5009889;28;20041;-61
2022/12/11 00:31:06;;;;;;;33.15;17.13;;;1.70;83.20;;;;;;5009652;28;20047;-61
2022/12/11 00:33:32;;;;;;;30.50;17.15;;;1.70;83.00;;;;;;5009262;28;20057;-62
2022/12/11 00:35:57;;;;;;;28.27;15.95;;;1.80;83.10;;;;;;5009549;28;20037;-60
2022/12/11 00:38:23;;;;;;;29.08;17.23;;;1.80;83.00;;;;;;5008332;28;20029;-59
2022/12/11 00:40:49;;;;;;;30.02;16.42;;;1.80;83.00;;;;;;5008033;28;20405;-59
2022/12/11 00:43:15;;;;;;;30.38;17.35;;;1.80;82.90;;;;;;5009140;28;20069;-58
2022/12/11 00:45:43;;;;;;;28.90;16.30;;;1.80;82.90;;;;;;5008016;28;20413;-61
2022/12/11 00:48:09;;;;;;;28.45;16.02;;;1.80;82.90;;;;;;5008865;28;20038;-61
2022/12/11 00:50:35;;;;;;;26.15;15.65;;;1.80;82.90;;;;;;5007986;28;20038;-61
2022/12/11 00:53:01;;;;;;;28.63;15.18;;;1.80;82.90;;;;;;5007928;28;20029;-61
2022/12/11 00:55:28;;;;;;;26.08;15.45;;;1.80;82.60;;;;;;5006676;28;20030;-59
2022/12/11 00:57:54;;;;;;;24.55;14.98;;;1.80;82.50;;;;;;5008999;28;20575;-59
2022/12/11 01:00:21;;;;;;;24.00;14.38;;;1.80;82.30;;;;;;5010914;28;20171;-60
2022/12/11 01:02:47;;;;;;;27.73;15.23;;;1.80;82.10;;;;;;5006756;28;20064;-60
2022/12/11 01:05:13;;;;;;;27.80;15.68;;;1.70;82.10;;;;;;5005285;28;20030;-59
2022/12/11 01:07:39;;;;;;;25.23;14.30;;;1.70;82.10;;;;;;5009776;28;20123;-60
2022/12/11 01:10:23;;;;;;;25.25;14.93;;;1.70;82.10;;;;;;5006857;28;20038;-61
2022/12/11 01:12:54;;;;;;;26.57;14.67;;;1.60;82.00;;;;;;5005468;28;20045;-60
2022/12/11 01:15:21;;;;;;;25.77;14.15;;;1.60;82.10;;;;;;5007239;28;20647;-59
2022/12/11 01:17:48;;;;;;;25.08;14.18;;;1.60;82.30;;;;;;5007598;28;20046;-60
2022/12/11 01:20:14;;;;;;;25.05;14.10;;;1.60;82.50;;;;;;5006315;28;20056;-61
2022/12/11 01:22:39;;;;;;;25.50;15.30;;;1.60;82.50;;;;;;5004681;28;20782;-60
2022/12/11 01:25:05;;;;;;;25.67;14.40;;;1.60;82.60;;;;;;5009599;28;20057;-60
2022/12/11 01:27:31;;;;;;;22.10;13.55;;;1.60;82.60;;;;;;5007718;28;20498;-59
2022/12/11 01:29:56;;;;;;;24.65;14.52;;;1.60;82.60;;;;;;5004721;28;20044;-62
2022/12/11 01:32:22;;;;;;;21.77;13.60;;;1.60;82.60;;;;;;5007982;28;20561;-60
2022/12/11 01:34:48;;;;;;;24.20;13.82;;;1.60;82.60;;;;;;5005791;28;20037;-59
2022/12/11 01:37:13;;;;;;;23.00;13.68;;;1.60;82.60;;;;;;5007771;28;20501;-59
2022/12/11 01:39:39;;;;;;;23.05;14.45;;;1.60;82.50;;;;;;5010940;28;20049;-61
2022/12/11 01:42:09;;;;;;;25.38;14.48;;;1.60;82.50;;;;;;5008802;28;20077;-61
2022/12/11 01:44:34;;;;;;;24.15;13.98;;;1.60;82.50;;;;;;5004982;28;20040;-60
2022/12/11 01:47:00;;;;;;;25.27;13.75;;;1.60;82.50;;;;;;5005607;28;20030;-61
2022/12/11 01:49:30;;;;;;;25.15;13.60;;;1.60;82.60;;;;;;5011479;28;20390;-59
2022/12/11 01:52:10;;;;;;;23.17;13.65;;;1.60;82.50;;;;;;5005135;28;20029;-61
2022/12/11 01:54:36;;;;;;;24.25;13.77;;;1.60;82.30;;;;;;4989117;28;20092;-60
2022/12/11 01:57:05;;;;;;;21.58;13.25;;;1.60;82.40;;;;;;5008146;28;20034;-59
2022/12/11 01:59:34;;;;;;;20.15;12.20;;;1.60;82.10;;;;;;5010634;28;20412;-60
2022/12/11 02:02:08;;;;;;;19.13;11.85;;;1.60;81.60;;;;;;5008113;28;20038;-60
2022/12/11 02:04:37;;;;;;;19.88;11.35;;;1.50;80.90;;;;;;5007065;28;20030;-60
2022/12/11 02:07:03;;;;;;;18.25;11.70;;;1.50;80.70;;;;;;5004576;28;20132;-59
2022/12/11 02:09:32;;;;;;;18.05;11.70;;;1.50;80.40;;;;;;5008144;28;20040;-61
2022/12/11 02:12:21;;;;;;;19.27;11.48;;;1.40;80.40;;;;;;5006914;28;20433;-60
2022/12/11 02:14:49;;;;;;;18.88;11.25;;;1.40;80.20;;;;;;5005226;28;20042;-60
2022/12/11 02:17:24;;;;;;;17.00;11.18;;;1.40;80.70;;;;;;5007796;28;20241;-60
2022/12/11 02:20:04;;;;;;;18.08;11.30;;;1.40;81.30;;;;;;5007593;28;20123;-60
2022/12/11 02:22:43;;;;;;;19.90;12.30;;;1.40;80.60;;;;;;5007925;28;20048;-59
2022/12/11 02:25:30;;;;;;;19.50;12.05;;;1.40;80.70;;;;;;5013004;28;20034;-61
2022/12/11 02:28:44;;;;;;;20.77;12.27;;;1.30;80.20;;;;;;5011484;28;20037;-60
2022/12/11 02:31:31;;;;;;;22.48;12.98;;;1.30;79.70;;;;;;4944905;28;20035;-60
2022/12/11 02:34:43;;;;;;;19.70;12.07;;;1.30;79.90;;;;;;5012452;28;20421;-59
2022/12/11 02:37:17;;;;;;;20.50;12.75;;;1.30;79.80;;;;;;4936164;28;20066;-59
2022/12/11 02:39:45;;;;;;;21.35;12.95;;;1.20;80.40;;;;;;5003358;28;20129;-60
2022/12/11 02:42:13;;;;;;;20.92;12.30;;;1.20;80.50;;;;;;5011289;28;20087;-61
2022/12/11 02:44:40;;;;;;;20.55;13.35;;;1.10;80.50;;;;;;5013784;28;20041;-60
2022/12/11 02:47:10;;;;;;;20.40;12.75;;;1.10;80.70;;;;;;5012012;28;20109;-60
2022/12/11 02:49:37;;;;;;;21.02;12.73;;;1.10;80.90;;;;;;5010773;28;20630;-61
2022/12/11 02:52:06;;;;;;;22.00;12.80;;;1.10;81.20;;;;;;5009656;28;20068;-61
2022/12/11 02:54:36;;;;;;;21.20;12.75;;;1.10;81.30;;;;;;5009291;28;20045;-60
2022/12/11 02:57:18;;;;;;;21.83;12.93;;;1.10;81.30;;;;;;5010653;28;20493;-59
2022/12/11 02:59:45;;;;;;;22.70;13.52;;;1.10;81.00;;;;;;5014708;28;20629;-60
2022/12/11 03:02:12;;;;;;;19.20;12.18;;;1.10;81.20;;;;;;5011126;28;20497;-60
2022/12/11 03:04:38;;;;;;;18.98;11.32;;;1.10;81.10;;;;;;5011207;28;20030;-60
2022/12/11 03:07:14;;;;;;;18.33;11.95;;;1.10;80.70;;;;;;5015086;28;20440;-59
2022/12/11 03:09:42;;;;;;;19.70;11.50;;;1.00;81.10;;;;;;5010801;28;20248;-60
2022/12/11 03:12:10;;;;;;;17.52;10.98;;;1.00;80.00;;;;;;5008342;28;20041;-61
2022/12/11 03:14:38;;;;;;;19.27;11.40;;;1.00;80.10;;;;;;5000979;28;22046;-61
2022/12/11 03:17:09;;;;;;;19.75;11.95;;;0.90;80.20;;;;;;5010012;28;20375;-59
2022/12/11 03:19:46;;;;;;;18.38;11.20;;;0.90;80.40;;;;;;5008879;28;20923;-61
2022/12/11 03:22:17;;;;;;;20.13;12.15;;;0.90;80.40;;;;;;5008940;28;21185;-61
2022/12/11 03:24:51;;;;;;;19.58;12.32;;;0.80;80.60;;;;;;5004236;28;20644;-61
2022/12/11 03:27:22;;;;;;;19.88;11.60;;;0.80;80.70;;;;;;5009612;28;20088;-62
2022/12/11 03:29:57;;;;;;;20.42;12.38;;;0.80;80.70;;;;;;5018763;28;20042;-59
2022/12/11 03:32:28;;;;;;;17.80;11.40;;;0.70;80.90;;;;;;5015929;28;20026;-59
2022/12/11 03:35:02;;;;;;;19.42;11.48;;;0.70;81.10;;;;;;5014746;28;20088;-61
2022/12/11 03:37:32;;;;;;;18.00;11.18;;;0.70;81.10;;;;;;5017550;28;20064;-60
2022/12/11 03:40:03;;;;;;;15.10;9.90;;;0.70;81.00;;;;;;5014690;28;20100;-60
2022/12/11 03:42:30;;;;;;;14.00;9.15;;;0.70;81.00;;;;;;5015511;28;20117;-58
2022/12/11 03:44:57;;;;;;;12.95;8.88;;;0.70;80.80;;;;;;5013901;28;20056;-60
2022/12/11 03:47:25;;;;;;;15.23;9.15;;;0.60;80.60;;;;;;5009313;28;20041;-59
2022/12/11 03:49:52;;;;;;;15.43;9.30;;;0.60;80.50;;;;;;5015992;28;20034;-60
2022/12/11 03:52:19;;;;;;;14.20;8.63;;;0.60;80.20;;;;;;5015775;28;20128;-59
2022/12/11 03:54:48;;;;;;;13.80;8.50;;;0.60;79.80;;;;;;5013175;28;20100;-60
2022/12/11 03:57:19;;;;;;;14.07;9.05;;;0.50;79.30;;;;;;5014368;28;20038;-59
2022/12/11 03:59:46;;;;;;;14.35;9.32;;;0.50;79.50;;;;;;5015416;28;20038;-61
2022/12/11 04:02:11;;;;;;;14.88;9.00;;;0.40;79.40;;;;;;5013524;28;20058;-59
2022/12/11 04:04:39;;;;;;;14.07;9.50;;;0.30;79.30;;;;;;5015000;28;20149;-60
2022/12/11 04:07:05;;;;;;;14.38;9.20;;;0.30;79.60;;;;;;5014897;28;20034;-60
2022/12/11 04:09:30;;;;;;;12.48;8.07;;;0.20;79.80;;;;;;5016138;28;20057;-59
2022/12/11 04:11:56;;;;;;;13.85;8.63;;;0.20;80.00;;;;;;5015092;28;20041;-58
2022/12/11 04:17:06;;;;;;;14.15;8.82;;;0.20;80.20;;;;;;5015426;28;20107;-61
2022/12/11 04:25:03;;;;;;;13.50;8.70;;;0.20;79.90;;;;;;5012714;28;20099;-59
2022/12/11 04:30:19;;;;;;;13.50;8.67;;;0.30;80.20;;;;;;5012909;28;20492;-57
2022/12/11 04:32:48;;;;;;;11.52;7.95;;;0.30;80.60;;;;;;5011299;28;20036;-60
2022/12/11 04:35:14;;;;;;;13.35;9.45;;;0.30;81.10;;;;;;5013871;28;20052;-59
2022/12/11 04:37:40;;;;;;;13.75;8.82;;;0.30;81.30;;;;;;5014362;28;20034;-60
2022/12/11 04:40:09;;;;;;;14.05;9.18;;;0.40;81.30;;;;;;5014218;28;20543;-60
2022/12/11 04:42:35;;;;;;;14.05;9.10;;;0.40;81.10;;;;;;5015093;28;20033;-60
2022/12/11 04:45:00;;;;;;;15.20;8.82;;;0.50;81.30;;;;;;5014276;28;20030;-58
2022/12/11 04:47:26;;;;;;;13.30;8.80;;;0.50;80.70;;;;;;5014597;28;20560;-59
2022/12/11 04:49:53;;;;;;;16.10;10.00;;;0.50;80.70;;;;;;5012920;28;20124;-59
2022/12/11 04:52:18;;;;;;;15.45;10.13;;;0.50;80.90;;;;;;5012125;28;20046;-60
2022/12/11 04:54:44;;;;;;;16.65;9.57;;;0.50;80.90;;;;;;5011743;28;20060;-60
2022/12/11 04:57:10;;;;;;;16.45;10.30;;;0.60;81.20;;;;;;5014427;28;20045;-59
2022/12/11 04:59:36;;;;;;;15.95;9.95;;;0.60;81.10;;;;;;5015390;28;20176;-59
2022/12/11 05:02:02;;;;;;;20.58;12.75;;;0.60;81.30;;;;;;5017068;28;20124;-60
2022/12/11 05:04:32;;;;;;;15.98;10.82;;;0.70;81.40;;;;;;5011006;28;20037;-60
2022/12/11 05:06:58;;;;;;;15.82;10.25;;;0.70;81.30;;;;;;5005913;28;20046;-60
2022/12/11 05:09:25;;;;;;;15.30;10.30;;;0.80;81.40;;;;;;5009495;28;20461;-61
2022/12/11 05:11:51;;;;;;;12.75;9.10;;;0.80;81.40;;;;;;5004038;28;20129;-59
2022/12/11 05:14:17;;;;;;;16.77;9.75;;;0.80;80.80;;;;;;5007847;28;20038;-60
2022/12/11 05:16:43;;;;;;;14.52;9.38;;;0.90;80.40;;;;;;5008441;28;20129;-61
2022/12/11 05:19:08;;;;;;;15.32;9.57;;;0.90;79.90;;;;;;5006671;28;20116;-60
2022/12/11 05:21:34;;;;;;;14.50;9.55;;;0.80;79.40;;;;;;5008112;28;20505;-59
2022/12/11 05:24:00;;;;;;;15.68;9.80;;;0.80;79.30;;;;;;5009010;28;20084;-60
2022/12/11 05:26:25;;;;;;;15.65;9.57;;;0.80;79.30;;;;;;5006043;28;20049;-61
2022/12/11 05:28:53;;;;;;;16.25;10.75;;;0.80;79.50;;;;;;5008558;28;20044;-59
2022/12/11 05:31:21;;;;;;;14.73;9.32;;;0.70;79.70;;;;;;5008376;28;20030;-60
2022/12/11 05:33:49;;;;;;;16.10;10.02;;;0.70;79.90;;;;;;5012055;28;20421;-61
2022/12/11 05:36:17;;;;;;;16.17;9.65;;;0.70;79.90;;;;;;5006910;28;20088;-60
2022/12/11 05:38:44;;;;;;;15.68;9.20;;;0.70;79.80;;;;;;5009962;28;20034;-61
2022/12/11 05:41:13;;;;;;;16.88;9.80;;;0.70;79.90;;;;;;5004519;28;20121;-60
2022/12/11 05:43:39;;;;;;;16.42;9.98;;;0.60;79.80;;;;;;5006680;28;20065;-59
2022/12/11 05:46:09;;;;;;;16.02;10.20;;;0.60;79.70;;;;;;5006043;28;20119;-60
2022/12/11 05:48:36;;;;;;;16.50;10.57;;;0.60;79.50;;;;;;5007450;28;20409;-57
2022/12/11 05:51:03;;;;;;;16.13;10.23;;;0.60;79.40;;;;;;5006284;28;20119;-61
2022/12/11 05:53:29;;;;;;;14.80;10.00;;;0.60;79.20;;;;;;5008074;28;20418;-59
2022/12/11 05:56:03;;;;;;;15.90;9.70;;;0.60;78.60;;;;;;5007355;28;20471;-60
2022/12/11 05:58:29;;;;;;;;;;;0.50;78.10;;;;;;5010973;28;20116;-58
2022/12/11 06:00:55;;;;;;;15.95;10.18;;;0.40;77.60;;;;;;5012382;28;19924;-60
2022/12/11 06:03:21;;;;;;;17.58;10.40;;;0.30;78.30;;;;;;5014445;28;20034;-60
2022/12/11 06:05:46;;;;;;;15.25;9.68;;;0.20;78.30;;;;;;5008805;28;20033;-59
2022/12/11 06:08:12;;;;;;;16.88;10.05;;;0.10;78.40;;;;;;5015644;28;20452;-60
2022/12/11 06:10:43;;;;;;;15.18;9.75;;;0.00;78.30;;;;;;5008785;28;20034;-60
2022/12/11 06:13:09;;;;;;;16.10;10.10;;;-0.10;78.30;;;;;;5010591;28;20061;-59
2022/12/11 06:15:34;;;;;;;17.45;9.77;;;-0.10;78.40;;;;;;5008259;28;20505;-61
2022/12/11 06:18:00;;;;;;;15.65;9.10;;;-0.20;78.30;;;;;;5014849;28;20495;-59
2022/12/11 06:20:25;;;;;;;16.30;9.82;;;-0.30;78.40;;;;;;5010010;28;20383;-60
2022/12/11 06:22:51;;;;;;;14.88;9.30;;;-0.40;78.50;;;;;;5012662;28;20453;-59
2022/12/11 06:25:16;;;;;;;16.02;9.55;;;-0.50;78.60;;;;;;5008805;28;20037;-60
2022/12/11 06:27:42;;;;;;;16.02;9.90;;;-0.60;78.80;;;;;;5014365;28;20025;-59
2022/12/11 06:30:08;;;;;;;18.20;11.13;;;-0.60;79.20;;;;;;5011215;28;20087;-59
2022/12/11 06:32:34;;;;;;;16.60;10.57;;;-0.70;79.30;;;;;;5010778;28;20034;-60
2022/12/11 06:34:59;;;;;;;17.55;10.90;;;-0.70;79.40;;;;;;5010523;28;20113;-59
2022/12/11 06:37:25;;;;;;;17.77;10.07;;;-0.70;79.20;;;;;;5015003;28;20038;-60
2022/12/11 06:39:50;;;;;;;20.33;10.80;;;-0.70;78.90;;;;;;5014469;28;20038;-59
2022/12/11 06:42:18;;;;;;;17.58;10.35;;;-0.80;78.70;;;;;;5010498;28;20030;-60
2022/12/11 06:44:44;;;;;;;18.50;10.50;;;-0.90;78.40;;;;;;5015464;28;20072;-59
2022/12/11 06:47:10;;;;;;;15.65;10.20;;;-1.00;78.10;;;;;;5016667;28;20474;-59
2022/12/11 06:49:35;;;;;;;18.55;11.10;;;-1.00;78.10;;;;;;5014816;28;20394;-59
2022/12/11 06:52:01;;;;;;;18.95;11.00;;;-1.10;78.20;;;;;;5015425;28;20517;-60
2022/12/11 06:54:27;;;;;;;16.23;10.65;;;-1.20;78.50;;;;;;5013544;28;20517;-59
2022/12/11 06:56:53;;;;;;;17.98;10.52;;;-1.30;78.70;;;;;;5016974;28;20390;-59
2022/12/11 06:59:18;;;;;;;17.58;10.63;;;-1.30;78.90;;;;;;5015812;28;20608;-59
2022/12/11 07:01:44;;;;;;;17.55;10.40;;;-1.30;79.20;;;;;;5019240;28;20030;-59
2022/12/11 07:04:09;;;;;;;17.15;10.27;;;-1.30;79.10;;;;;;5017869;28;20044;-60
2022/12/11 07:06:35;;;;;;;16.55;10.20;;;-1.30;78.80;;;;;;5018104;28;20041;-59
2022/12/11 07:09:04;;;;;;;14.60;9.55;;;-1.40;78.50;;;;;;5019295;28;20464;-61
2022/12/11 07:11:29;;;;;;;16.73;10.25;;;-1.40;78.00;;;;;;5017755;28;20041;-59
2022/12/11 07:13:58;;;;;;;15.05;9.35;;;-1.40;78.20;;;;;;5019272;28;20026;-60
2022/12/11 07:16:24;;;;;;;16.92;10.23;;;-1.50;78.20;;;;;;5018091;28;20494;-60
2022/12/11 07:18:50;;;;;;;15.07;8.95;;;-1.50;78.20;;;;;;5018026;28;20072;-61
2022/12/11 07:21:16;;;;;;;16.27;9.65;;;-1.60;78.50;;;;;;5016518;28;20052;-60
2022/12/11 07:23:42;;;;;;;17.42;9.77;;;-1.60;78.60;;;;;;5016267;28;20044;-59
2022/12/11 07:26:14;;;;;;;16.50;9.98;;;-1.60;78.50;;;;;;5013723;28;20412;-60
2022/12/11 07:28:40;;;;;;;13.85;9.20;;;-1.60;78.20;;;;;;5017828;28;20037;-59
2022/12/11 07:31:13;;;;;;;17.80;9.82;;;-1.60;78.10;;;;;;5017631;28;20030;-60
2022/12/11 07:33:41;;;;;;;17.90;10.30;;;-1.60;78.00;;;;;;5017600;28;20038;-59
2022/12/11 07:36:08;;;;;;;17.60;10.20;;;-1.70;78.00;;;;;;5017122;28;20623;-58
2022/12/11 07:38:35;;;;;;;18.80;11.18;;;-1.70;78.10;;;;;;5017808;28;20497;-59
2022/12/11 07:41:06;;;;;;;16.25;10.07;;;-1.80;78.20;;;;;;5017329;28;20056;-60
2022/12/11 07:43:35;;;;;;;18.33;11.18;;;-1.90;78.50;;;;;;5008121;28;20656;-59
2022/12/11 07:46:11;;;;;;;21.58;10.43;;;-1.90;78.60;;;;;;5010259;28;20044;-59
2022/12/11 07:48:41;;;;;;;30.23;13.73;;;-2.00;78.90;;;;;;5007759;28;20048;-59
2022/12/11 07:51:16;;;;;;;27.30;13.15;;;-2.00;79.10;;;;;;5006112;28;20025;-59
2022/12/11 07:53:46;;;;;;;32.97;14.75;;;-2.00;79.20;;;;;;5008878;28;20038;-59
2022/12/11 07:56:12;;;;;;;28.40;13.88;;;-2.10;79.20;;;;;;5007049;28;20037;-60
2022/12/11 07:58:38;;;;;;;37.97;16.63;;;-2.10;79.30;;;;;;5009197;28;20528;-61
2022/12/11 08:01:15;;;;;;;31.10;15.32;;;-2.10;79.30;;;;;;5007850;28;20125;-59
2022/12/11 08:03:41;;;;;;;22.52;12.52;;;-2.10;79.40;;;;;;5012905;28;20080;-60
2022/12/11 08:06:10;;;;;;;23.60;12.50;;;-2.10;79.50;;;;;;5009031;28;20041;-59
2022/12/11 08:08:35;;;;;;;21.55;11.70;;;-2.10;79.70;;;;;;5012302;28;20049;-60
2022/12/11 08:11:02;;;;;;;25.60;12.75;;;-2.10;79.80;;;;;;5003912;28;20040;-59
2022/12/11 08:13:28;;;;;;;29.10;15.07;;;-2.20;80.00;;;;;;5008044;28;20555;-60
2022/12/11 08:15:53;;;;;;;30.35;15.80;;;-2.20;80.40;;;;;;5008789;28;20092;-58
2022/12/11 08:18:19;;;;;;;28.50;14.82;;;-2.10;80.50;;;;;;5007914;28;20757;-60
2022/12/11 08:20:45;;;;;;;35.40;14.80;;;-2.10;80.50;;;;;;5011153;28;20037;-60
2022/12/11 08:23:10;;;;;;;26.35;14.75;;;-2.10;80.40;;;;;;5007532;28;20701;-60
2022/12/11 08:25:36;;;;;;;18.85;11.13;;;-2.00;80.40;;;;;;5011061;28;20022;-58
2022/12/11 08:28:02;;;;;;;17.25;10.07;;;-2.00;80.60;;;;;;5007637;28;20108;-58
2022/12/11 08:30:27;;;;;;;17.42;9.73;;;-1.90;80.70;;;;;;5006627;28;20056;-61
2022/12/11 08:32:53;;;;;;;15.48;9.68;;;-1.90;80.90;;;;;;4993355;28;20052;-56
2022/12/11 08:35:18;;;;;;;17.33;10.73;;;-1.80;81.00;;;;;;5005303;28;20049;-58
2022/12/11 08:37:44;;;;;;;17.35;10.10;;;-1.80;81.10;;;;;;5009712;28;20060;-58
2022/12/11 08:40:11;;;;;;;17.95;10.02;;;-1.70;81.10;;;;;;4990973;28;20068;-60
2022/12/11 08:42:37;;;;;;;20.08;11.63;;;-1.70;81.20;;;;;;5000584;28;20029;-58
2022/12/11 08:45:03;;;;;;;17.92;10.93;;;-1.60;81.10;;;;;;5006971;28;20030;-60
2022/12/11 08:47:28;;;;;;;16.48;10.57;;;-1.60;80.90;;;;;;5012455;28;20516;-59
2022/12/11 08:49:57;;;;;;;17.80;10.75;;;-1.60;80.90;;;;;;5014635;28;20045;-59
2022/12/11 08:52:23;;;;;;;17.23;10.77;;;-1.50;80.90;;;;;;5003682;28;20038;-60
2022/12/11 08:54:48;;;;;;;20.55;10.82;;;-1.50;80.90;;;;;;5011488;28;20044;-58
2022/12/11 08:57:14;;;;;;;18.30;10.98;;;-1.40;81.10;;;;;;5016955;28;20058;-60
2022/12/11 08:59:39;;;;;;;20.05;12.05;;;-1.40;81.10;;;;;;5012952;28;20285;-59
2022/12/11 09:02:05;;;;;;;18.50;11.65;;;-1.30;81.10;;;;;;5017070;28;20125;-59
2022/12/11 09:04:31;;;;;;;20.55;12.07;;;-1.30;81.10;;;;;;5016599;28;20037;-60
2022/12/11 09:06:57;;;;;;;22.25;12.18;;;-1.30;81.10;;;;;;5013228;28;20037;-57
2022/12/11 09:09:23;;;;;;;19.35;11.20;;;-1.20;81.30;;;;;;5012356;28;20055;-58
2022/12/11 09:11:48;;;;;;;18.52;11.05;;;-1.20;81.30;;;;;;5009746;28;20037;-59
2022/12/11 09:14:15;;;;;;;18.70;11.63;;;-1.10;81.30;;;;;;5013749;28;20034;-60
2022/12/11 09:16:41;;;;;;;20.08;12.10;;;-1.10;81.10;;;;;;5014724;28;20270;-56
2022/12/11 09:19:12;;;;;;;18.50;11.70;;;-1.00;81.10;;;;;;5015119;28;20588;-60
2022/12/11 09:21:37;;;;;;;18.90;11.95;;;-1.00;81.30;;;;;;5013475;28;20038;-61
2022/12/11 09:24:04;;;;;;;23.65;12.25;;;-1.00;81.40;;;;;;5014285;28;20055;-60
2022/12/11 09:26:29;;;;;;;23.75;12.18;;;-0.90;81.40;;;;;;5017310;28;20044;-60
2022/12/11 09:28:55;;;;;;;22.50;12.95;;;-0.90;81.30;;;;;;5014014;28;20258;-60
2022/12/11 09:31:26;;;;;;;20.27;12.00;;;-0.80;81.30;;;;;;5016456;28;20550;-61
2022/12/11 09:33:55;;;;;;;23.52;12.18;;;-0.80;81.30;;;;;;5013721;28;20033;-60
2022/12/11 09:36:21;;;;;;;20.02;12.00;;;-0.70;81.30;;;;;;5014630;28;20037;-61
2022/12/11 09:38:47;;;;;;;19.33;11.75;;;-0.70;81.80;;;;;;5015095;28;20057;-60
2022/12/11 09:41:28;;;;;;;20.77;12.32;;;-0.60;81.10;;;;;;5011767;28;20171;-59
2022/12/11 09:44:12;;;;;;;20.80;12.13;;;-0.60;81.00;;;;;;5013972;28;20038;-61
2022/12/11 09:46:38;;;;;;;15.77;8.37;;;-0.50;80.80;;;;;;5012357;28;20044;-61
2022/12/11 09:49:19;;;;;;;22.85;11.73;;;-0.40;80.90;;;;;;5015730;28;20276;-60
2022/12/11 09:52:11;;;;;;;20.77;12.82;;;-0.40;80.90;;;;;;5015415;28;20056;-58
2022/12/11 09:54:42;;;;;;;20.20;11.52;;;-0.40;81.00;;;;;;5017049;28;20153;-60
2022/12/11 09:57:49;;;;;;;20.38;11.75;;;-0.30;81.10;;;;;;5014404;28;20038;-60
2022/12/11 10:00:25;;;;;;;19.55;11.27;;;-0.30;80.80;;;;;;4916546;29;20508;-59
2022/12/11 10:03:18;;;;;;;22.50;12.38;;;-0.30;80.90;;;;;;5003495;28;20363;-59
2022/12/11 10:06:07;;;;;;;18.77;11.93;;;-0.20;80.60;;;;;;5015983;28;21124;-60
2022/12/11 10:08:55;;;;;;;18.15;10.18;;;-0.10;80.90;;;;;;5002164;28;20052;-60
2022/12/11 10:11:53;;;;;;;16.30;10.10;;;-0.10;81.10;;;;;;5013784;28;20448;-60
2022/12/11 10:14:42;;;;;;;16.83;10.27;;;0.00;80.90;;;;;;5016955;28;20500;-60
2022/12/11 10:17:30;;;;;;;15.88;10.07;;;0.00;80.90;;;;;;5015369;28;20033;-60
2022/12/11 10:20:16;;;;;;;16.13;10.15;;;0.10;81.10;;;;;;5005986;28;20034;-59
2022/12/11 10:22:42;;;;;;;16.38;9.88;;;0.10;81.20;;;;;;5012330;28;20032;-60
2022/12/11 10:25:18;;;;;;;16.50;10.13;;;0.20;81.20;;;;;;5014239;28;20061;-61
2022/12/11 10:27:44;;;;;;;16.85;10.45;;;0.30;81.10;;;;;;5013477;28;20044;-61
2022/12/11 10:30:20;;;;;;;18.17;11.55;;;0.30;81.10;;;;;;5014624;28;20042;-59
2022/12/11 10:33:10;;;;;;;19.77;12.00;;;0.40;81.00;;;;;;5013239;28;20468;-59
2022/12/11 10:35:35;;;;;;;20.20;12.93;;;0.40;80.70;;;;;;5013642;28;20045;-61
2022/12/11 10:38:15;;;;;;;18.70;11.00;;;0.50;80.80;;;;;;5015771;28;20520;-61
2022/12/11 10:40:45;;;;;;;19.45;10.98;;;0.50;80.60;;;;;;5013856;28;20116;-60
2022/12/11 10:43:11;;;;;;;16.95;10.23;;;0.50;80.70;;;;;;5016191;28;20102;-60
2022/12/11 10:45:37;;;;;;;18.45;10.23;;;0.60;80.60;;;;;;5017524;28;20523;-61
2022/12/11 10:48:12;;;;;;;16.40;9.98;;;0.60;80.40;;;;;;5017653;28;20034;-63
2022/12/11 10:50:38;;;;;;;15.15;9.38;;;0.60;80.00;;;;;;5017970;28;20513;-61
2022/12/11 10:53:04;;;;;;;17.17;9.85;;;0.60;80.10;;;;;;5013787;28;20061;-60
2022/12/11 10:55:42;;;;;;;14.90;9.38;;;0.70;80.10;;;;;;5018348;28;20041;-61
2022/12/11 10:58:19;;;;;;;14.85;9.40;;;0.70;79.80;;;;;;5019435;28;20489;-61
2022/12/11 11:00:48;;;;;;;13.82;8.40;;;0.70;79.90;;;;;;5017500;28;20048;-59
2022/12/11 11:03:25;;;;;;;15.07;8.38;;;0.70;80.00;;;;;;5014822;28;20076;-59
2022/12/11 11:06:08;;;;;;;11.77;7.60;;;0.80;79.90;;;;;;5015499;28;20021;-61
2022/12/11 11:08:43;;;;;;;14.32;8.75;;;0.80;79.90;;;;;;5020256;28;20030;-59
2022/12/11 11:11:23;;;;;;;14.30;8.60;;;0.80;80.10;;;;;;5020336;28;20037;-60
2022/12/11 11:13:49;;;;;;;12.85;8.23;;;0.90;80.20;;;;;;5017629;28;20057;-63
2022/12/11 11:16:17;;;;;;;11.55;7.72;;;0.90;80.30;;;;;;5020857;28;20537;-62
2022/12/11 11:18:52;;;;;;;16.13;9.00;;;1.00;80.00;;;;;;5021034;28;20049;-63
2022/12/11 11:21:20;;;;;;;13.68;8.30;;;1.10;80.20;;;;;;5019746;28;20045;-62
2022/12/11 11:23:46;;;;;;;15.50;9.35;;;1.10;80.30;;;;;;5020249;28;20106;-60
2022/12/11 11:26:12;;;;;;;14.02;8.82;;;1.20;80.40;;;;;;5018240;28;20081;-62
2022/12/11 11:28:41;;;;;;;11.80;7.53;;;1.20;80.20;;;;;;5018418;28;20060;-62
2022/12/11 11:31:11;;;;;;;16.08;10.10;;;1.30;80.20;;;;;;5021658;28;20052;-62
2022/12/11 11:33:54;;;;;;;12.85;8.30;;;1.40;80.00;;;;;;5019546;28;20116;-63
2022/12/11 11:36:23;;;;;;;14.35;8.55;;;1.40;79.80;;;;;;5021266;28;20052;-61
2022/12/11 11:38:52;;;;;;;15.27;9.32;;;1.50;80.00;;;;;;5020503;28;20053;-60
2022/12/11 11:41:27;;;;;;;12.38;7.68;;;1.60;79.80;;;;;;5020991;28;20545;-62
2022/12/11 11:44:06;;;;;;;12.07;7.82;;;1.60;79.60;;;;;;5021135;28;20045;-58
2022/12/11 11:46:44;;;;;;;13.43;8.02;;;1.70;79.20;;;;;;5019199;28;20057;-62
2022/12/11 11:49:23;;;;;;;14.25;8.40;;;1.80;78.90;;;;;;5020189;28;20037;-61
2022/12/11 11:51:48;;;;;;;12.77;8.10;;;1.80;76.90;;;;;;5021730;28;20397;-61
2022/12/11 11:54:28;;;;;;;13.80;8.95;;;1.70;77.10;;;;;;5019366;28;20096;-61
2022/12/11 11:56:55;;;;;;;14.20;9.10;;;1.70;77.00;;;;;;5017998;28;20041;-62
2022/12/11 11:59:33;;;;;;;17.20;9.60;;;1.70;77.30;;;;;;5020094;28;20091;-63
2022/12/11 12:01:59;;;;;;;16.83;10.65;;;1.70;76.70;;;;;;5020256;28;20036;-61
2022/12/11 12:04:31;;;;;;;16.13;10.00;;;1.60;76.90;;;;;;5019857;28;20505;-63
2022/12/11 12:07:22;;;;;;;15.63;10.40;;;1.50;77.30;;;;;;5020596;28;20068;-62
2022/12/11 12:09:51;;;;;;;16.80;10.15;;;1.50;78.40;;;;;;5019381;28;20042;-61
2022/12/11 12:12:45;;;;;;;17.80;10.05;;;1.40;78.10;;;;;;5015427;28;20443;-61
2022/12/11 12:15:29;;;;;;;16.35;9.75;;;1.50;78.50;;;;;;5019792;28;20033;-62
2022/12/11 12:18:17;;;;;;;18.38;10.90;;;1.50;79.10;;;;;;5019476;28;20029;-62
2022/12/11 12:20:43;;;;;;;15.73;9.40;;;1.60;78.50;;;;;;5019174;28;20033;-62
2022/12/11 12:23:42;;;;;;;15.35;9.15;;;1.60;78.60;;;;;;5019995;28;20470;-62
2022/12/11 12:26:29;;;;;;;13.60;8.68;;;1.60;77.60;;;;;;5019703;28;20117;-62
2022/12/11 12:29:19;;;;;;;13.57;8.77;;;1.70;77.30;;;;;;5018592;28;20117;-63
2022/12/11 12:32:16;;;;;;;13.55;8.75;;;1.70;78.10;;;;;;5017086;28;20065;-63
2022/12/11 12:34:42;;;;;;;13.70;8.70;;;1.70;77.10;;;;;;5018936;28;20036;-62
2022/12/11 12:37:17;;;;;;;13.07;8.38;;;1.70;77.60;;;;;;5017835;28;20034;-62
2022/12/11 12:40:10;;;;;;;13.50;8.38;;;1.70;77.80;;;;;;5014779;28;20041;-61
2022/12/11 12:42:57;;;;;;;12.85;7.93;;;1.70;77.30;;;;;;5017095;28;20030;-62
2022/12/11 12:45:32;;;;;;;11.93;7.30;;;1.80;77.80;;;;;;5016148;28;20661;-64
2022/12/11 12:47:58;;;;;;;12.77;6.93;;;1.80;77.50;;;;;;5016073;28;20045;-62
2022/12/11 12:50:28;;;;;;;13.30;8.07;;;1.80;77.50;;;;;;5014119;28;20051;-62
2022/12/11 12:52:54;;;;;;;14.60;8.75;;;1.90;77.50;;;;;;5013357;28;20087;-63
2022/12/11 12:55:22;;;;;;;13.70;8.20;;;1.90;77.60;;;;;;5016722;28;20061;-61
2022/12/11 12:57:59;;;;;;;12.77;7.70;;;2.00;77.60;;;;;;5015947;28;20033;-62
2022/12/11 13:00:45;;;;;;;11.85;7.65;;;2.00;77.50;;;;;;5015524;28;20037;-63
2022/12/11 13:03:21;;;;;;;14.48;7.95;;;2.00;76.70;;;;;;5015265;28;20595;-61
2022/12/11 13:06:13;;;;;;;12.18;7.65;;;2.10;77.00;;;;;;5019969;28;20044;-61